Terminal Aerodrome Forecast
Issued by NWS Pueblo, CO

Home | Current Version | Previous Version | Text Only | Print | Product List | Glossary On
Versions: 1 2 3 4 5 6 7 8 9 10 11 12 13 14 15 16 17 18 19 20
000
FTUS45 KPUB 230612 AAA
TAFPUB
TAF AMD
KPUB 230612Z 2306/2406 21012KT P6SM SCT100 BKN150
     FM231500 22012G22KT P6SM SCT100 BKN200
     FM231800 24018G28KT P6SM SCT100 BKN200
     FM240100 34015G25KT P6SM BKN100=

USA.gov is the U.S. government's official web portal to all federal, state and local government web resources and services.